sensor_id;sensor_type;location;lat;lon;timestamp;temperature;humidity
27922;DHT22;15261;50.356;10.340;2024-03-22T00:01:14;4.90;99.90
27922;DHT22;15261;50.356;10.340;2024-03-22T00:03:39;4.90;99.90
27922;DHT22;15261;50.356;10.340;2024-03-22T00:06:05;4.90;99.90
27922;DHT22;15261;50.356;10.340;2024-03-22T00:08:30;4.80;99.90
27922;DHT22;15261;50.356;10.340;2024-03-22T00:10:56;4.80;99.90
27922;DHT22;15261;50.356;10.340;2024-03-22T00:13:21;4.90;99.90
27922;DHT22;15261;50.356;10.340;2024-03-22T00:15:47;4.80;99.90
27922;DHT22;15261;50.356;10.340;2024-03-22T00:18:13;4.70;99.90
27922;DHT22;15261;50.356;10.340;2024-03-22T00:20:38;4.70;99.90
27922;DHT22;15261;50.356;10.340;2024-03-22T00:23:04;4.80;99.90
27922;DHT22;15261;50.356;10.340;2024-03-22T00:25:30;4.80;99.90
27922;DHT22;15261;50.356;10.340;2024-03-22T00:27:56;4.90;99.90
27922;DHT22;15261;50.356;10.340;2024-03-22T00:30:21;4.90;99.90
27922;DHT22;15261;50.356;10.340;2024-03-22T00:32:47;4.90;99.90
27922;DHT22;15261;50.356;10.340;2024-03-22T00:35:13;4.90;99.90
27922;DHT22;15261;50.356;10.340;2024-03-22T00:37:38;4.90;99.90
27922;DHT22;15261;50.356;10.340;2024-03-22T00:40:05;4.90;99.90
27922;DHT22;15261;50.356;10.340;2024-03-22T00:42:30;4.70;99.90
27922;DHT22;15261;50.356;10.340;2024-03-22T00:44:56;4.60;99.90
27922;DHT22;15261;50.356;10.340;2024-03-22T00:47:23;4.70;99.90
27922;DHT22;15261;50.356;10.340;2024-03-22T00:49:48;4.60;99.90
27922;DHT22;15261;50.356;10.340;2024-03-22T00:52:14;4.60;99.90
27922;DHT22;15261;50.356;10.340;2024-03-22T00:54:39;4.50;99.90
27922;DHT22;15261;50.356;10.340;2024-03-22T00:57:06;4.50;99.90
27922;DHT22;15261;50.356;10.340;2024-03-22T00:59:32;4.60;99.90
27922;DHT22;15261;50.356;10.340;2024-03-22T01:01:57;4.60;99.90
27922;DHT22;15261;50.356;10.340;2024-03-22T01:04:23;4.70;99.90
27922;DHT22;15261;50.356;10.340;2024-03-22T01:06:49;4.80;99.90
27922;DHT22;15261;50.356;10.340;2024-03-22T01:09:14;4.80;99.90
27922;DHT22;15261;50.356;10.340;2024-03-22T01:11:40;4.80;99.90
27922;DHT22;15261;50.356;10.340;2024-03-22T01:14:06;4.80;99.90
27922;DHT22;15261;50.356;10.340;2024-03-22T01:16:31;4.80;99.90
27922;DHT22;15261;50.356;10.340;2024-03-22T01:18:57;4.80;99.90
27922;DHT22;15261;50.356;10.340;2024-03-22T01:21:22;4.60;99.90
27922;DHT22;15261;50.356;10.340;2024-03-22T01:23:53;4.60;99.90
27922;DHT22;15261;50.356;10.340;2024-03-22T01:26:19;4.50;99.90
27922;DHT22;15261;50.356;10.340;2024-03-22T01:28:45;4.50;99.90
27922;DHT22;15261;50.356;10.340;2024-03-22T01:31:11;4.50;99.90
27922;DHT22;15261;50.356;10.340;2024-03-22T01:33:36;4.50;99.90
27922;DHT22;15261;50.356;10.340;2024-03-22T01:36:02;4.60;99.90
27922;DHT22;15261;50.356;10.340;2024-03-22T01:38:30;4.50;99.90
27922;DHT22;15261;50.356;10.340;2024-03-22T01:40:56;4.50;99.90
27922;DHT22;15261;50.356;10.340;2024-03-22T01:43:21;4.50;99.90
27922;DHT22;15261;50.356;10.340;2024-03-22T01:45:47;4.40;99.90
27922;DHT22;15261;50.356;10.340;2024-03-22T01:48:13;4.40;99.90
27922;DHT22;15261;50.356;10.340;2024-03-22T01:50:38;4.40;99.90
27922;DHT22;15261;50.356;10.340;2024-03-22T01:53:04;4.40;99.90
27922;DHT22;15261;50.356;10.340;2024-03-22T01:55:30;4.30;99.90
27922;DHT22;15261;50.356;10.340;2024-03-22T01:57:56;4.40;99.90
27922;DHT22;15261;50.356;10.340;2024-03-22T02:00:22;4.40;99.90
27922;DHT22;15261;50.356;10.340;2024-03-22T02:15:45;4.40;99.90
27922;DHT22;15261;50.356;10.340;2024-03-22T02:18:10;4.20;99.90
27922;DHT22;15261;50.356;10.340;2024-03-22T02:20:36;4.10;99.90
27922;DHT22;15261;50.356;10.340;2024-03-22T02:23:02;4.10;99.90
27922;DHT22;15261;50.356;10.340;2024-03-22T02:25:27;4.10;99.90
27922;DHT22;15261;50.356;10.340;2024-03-22T02:27:53;4.10;99.90
27922;DHT22;15261;50.356;10.340;2024-03-22T02:30:18;4.00;99.90
27922;DHT22;15261;50.356;10.340;2024-03-22T02:32:44;4.10;99.90
27922;DHT22;15261;50.356;10.340;2024-03-22T02:35:10;4.00;99.90
27922;DHT22;15261;50.356;10.340;2024-03-22T02:37:35;4.00;99.90
27922;DHT22;15261;50.356;10.340;2024-03-22T02:40:01;4.00;99.90
27922;DHT22;15261;50.356;10.340;2024-03-22T02:42:26;4.00;99.90
27922;DHT22;15261;50.356;10.340;2024-03-22T02:44:52;3.90;99.90
27922;DHT22;15261;50.356;10.340;2024-03-22T02:47:18;3.90;99.90
27922;DHT22;15261;50.356;10.340;2024-03-22T02:49:43;3.80;99.90
27922;DHT22;15261;50.356;10.340;2024-03-22T02:52:09;3.90;99.90
27922;DHT22;15261;50.356;10.340;2024-03-22T02:54:34;3.80;99.90
27922;DHT22;15261;50.356;10.340;2024-03-22T02:57:00;3.90;99.90
27922;DHT22;15261;50.356;10.340;2024-03-22T03:02:42;4.00;99.90
27922;DHT22;15261;50.356;10.340;2024-03-22T03:05:08;4.10;99.90
27922;DHT22;15261;50.356;10.340;2024-03-22T03:07:34;4.10;99.90
27922;DHT22;15261;50.356;10.340;2024-03-22T03:09:59;4.10;99.90
27922;DHT22;15261;50.356;10.340;2024-03-22T03:12:25;4.00;99.90
27922;DHT22;15261;50.356;10.340;2024-03-22T03:14:50;4.00;99.90
27922;DHT22;15261;50.356;10.340;2024-03-22T03:17:16;3.90;99.90
27922;DHT22;15261;50.356;10.340;2024-03-22T03:19:41;3.70;99.90
27922;DHT22;15261;50.356;10.340;2024-03-22T03:22:07;3.60;99.90
27922;DHT22;15261;50.356;10.340;2024-03-22T03:24:32;3.50;99.90
27922;DHT22;15261;50.356;10.340;2024-03-22T03:26:58;3.50;99.90
27922;DHT22;15261;50.356;10.340;2024-03-22T03:29:23;3.60;99.90
27922;DHT22;15261;50.356;10.340;2024-03-22T03:31:49;3.60;99.90
27922;DHT22;15261;50.356;10.340;2024-03-22T03:34:15;3.70;99.90
27922;DHT22;15261;50.356;10.340;2024-03-22T03:36:41;3.70;99.90
27922;DHT22;15261;50.356;10.340;2024-03-22T03:39:06;3.70;99.90
27922;DHT22;15261;50.356;10.340;2024-03-22T03:41:32;3.70;99.90
27922;DHT22;15261;50.356;10.340;2024-03-22T03:43:57;3.60;99.90
27922;DHT22;15261;50.356;10.340;2024-03-22T03:46:25;3.60;99.90
27922;DHT22;15261;50.356;10.340;2024-03-22T03:48:51;3.70;99.90
27922;DHT22;15261;50.356;10.340;2024-03-22T03:51:16;3.70;99.90
27922;DHT22;15261;50.356;10.340;2024-03-22T03:53:42;3.70;99.90
27922;DHT22;15261;50.356;10.340;2024-03-22T03:56:07;3.60;99.90
27922;DHT22;15261;50.356;10.340;2024-03-22T03:58:33;3.50;99.90
27922;DHT22;15261;50.356;10.340;2024-03-22T04:00:58;3.30;99.90
27922;DHT22;15261;50.356;10.340;2024-03-22T04:03:24;3.20;99.90
27922;DHT22;15261;50.356;10.340;2024-03-22T04:05:56;3.00;99.90
27922;DHT22;15261;50.356;10.340;2024-03-22T04:08:22;2.90;99.90
27922;DHT22;15261;50.356;10.340;2024-03-22T04:10:52;2.90;99.90
27922;DHT22;15261;50.356;10.340;2024-03-22T04:13:18;2.90;99.90
27922;DHT22;15261;50.356;10.340;2024-03-22T04:15:43;2.90;99.90
27922;DHT22;15261;50.356;10.340;2024-03-22T04:18:09;2.90;99.90
27922;DHT22;15261;50.356;10.340;2024-03-22T04:20:35;3.00;99.90
27922;DHT22;15261;50.356;10.340;2024-03-22T04:23:00;3.10;99.90
27922;DHT22;15261;50.356;10.340;2024-03-22T04:25:26;3.10;99.90
27922;DHT22;15261;50.356;10.340;2024-03-22T04:27:51;3.20;99.90
27922;DHT22;15261;50.356;10.340;2024-03-22T04:30:17;3.20;99.90
27922;DHT22;15261;50.356;10.340;2024-03-22T04:32:42;3.10;99.90
27922;DHT22;15261;50.356;10.340;2024-03-22T04:35:10;3.00;99.90
27922;DHT22;15261;50.356;10.340;2024-03-22T04:37:36;3.00;99.90
27922;DHT22;15261;50.356;10.340;2024-03-22T04:40:02;3.00;99.90
27922;DHT22;15261;50.356;10.340;2024-03-22T04:42:28;3.10;99.90
27922;DHT22;15261;50.356;10.340;2024-03-22T04:44:53;3.10;99.90
27922;DHT22;15261;50.356;10.340;2024-03-22T04:47:19;3.00;99.90
27922;DHT22;15261;50.356;10.340;2024-03-22T04:49:45;3.00;99.90
27922;DHT22;15261;50.356;10.340;2024-03-22T04:52:10;3.00;99.90
27922;DHT22;15261;50.356;10.340;2024-03-22T04:54:36;3.00;99.90
27922;DHT22;15261;50.356;10.340;2024-03-22T04:57:01;2.90;99.90
27922;DHT22;15261;50.356;10.340;2024-03-22T04:59:27;2.90;99.90
27922;DHT22;15261;50.356;10.340;2024-03-22T05:01:53;2.80;99.90
27922;DHT22;15261;50.356;10.340;2024-03-22T05:04:18;2.90;99.90
27922;DHT22;15261;50.356;10.340;2024-03-22T05:06:44;3.10;99.90
27922;DHT22;15261;50.356;10.340;2024-03-22T05:09:10;3.20;99.90
27922;DHT22;15261;50.356;10.340;2024-03-22T05:11:35;3.10;99.90
27922;DHT22;15261;50.356;10.340;2024-03-22T05:14:01;3.20;99.90
27922;DHT22;15261;50.356;10.340;2024-03-22T05:16:27;3.40;99.90
27922;DHT22;15261;50.356;10.340;2024-03-22T05:18:52;3.60;99.90
27922;DHT22;15261;50.356;10.340;2024-03-22T05:21:18;3.70;99.90
27922;DHT22;15261;50.356;10.340;2024-03-22T05:23:43;3.80;99.90
27922;DHT22;15261;50.356;10.340;2024-03-22T05:26:09;3.90;99.90
27922;DHT22;15261;50.356;10.340;2024-03-22T05:28:35;3.90;99.90
27922;DHT22;15261;50.356;10.340;2024-03-22T05:31:01;4.00;99.90
27922;DHT22;15261;50.356;10.340;2024-03-22T05:33:26;4.00;99.90
27922;DHT22;15261;50.356;10.340;2024-03-22T05:35:52;3.90;99.90
27922;DHT22;15261;50.356;10.340;2024-03-22T05:38:18;3.80;99.90
27922;DHT22;15261;50.356;10.340;2024-03-22T05:40:43;3.70;99.90
27922;DHT22;15261;50.356;10.340;2024-03-22T05:43:11;3.70;99.90
27922;DHT22;15261;50.356;10.340;2024-03-22T05:45:37;3.60;99.90
27922;DHT22;15261;50.356;10.340;2024-03-22T05:48:02;3.70;99.90
27922;DHT22;15261;50.356;10.340;2024-03-22T05:50:28;3.70;99.90
27922;DHT22;15261;50.356;10.340;2024-03-22T05:52:53;3.90;99.90
27922;DHT22;15261;50.356;10.340;2024-03-22T05:55:19;4.10;99.90
27922;DHT22;15261;50.356;10.340;2024-03-22T05:57:44;4.20;99.90
27922;DHT22;15261;50.356;10.340;2024-03-22T06:00:10;4.40;99.90
27922;DHT22;15261;50.356;10.340;2024-03-22T06:02:38;4.50;99.90
27922;DHT22;15261;50.356;10.340;2024-03-22T06:05:04;4.70;99.90
27922;DHT22;15261;50.356;10.340;2024-03-22T06:07:29;4.80;99.90
27922;DHT22;15261;50.356;10.340;2024-03-22T06:09:55;4.80;99.90
27922;DHT22;15261;50.356;10.340;2024-03-22T06:12:21;4.70;99.90
27922;DHT22;15261;50.356;10.340;2024-03-22T06:14:47;4.60;99.90
27922;DHT22;15261;50.356;10.340;2024-03-22T06:17:13;4.50;99.90
27922;DHT22;15261;50.356;10.340;2024-03-22T06:19:40;4.50;99.90
27922;DHT22;15261;50.356;10.340;2024-03-22T06:22:05;4.50;99.90
27922;DHT22;15261;50.356;10.340;2024-03-22T06:24:31;4.70;99.90
27922;DHT22;15261;50.356;10.340;2024-03-22T06:26:57;4.90;99.90
27922;DHT22;15261;50.356;10.340;2024-03-22T06:29:22;5.00;99.90
27922;DHT22;15261;50.356;10.340;2024-03-22T06:31:48;5.10;99.90
27922;DHT22;15261;50.356;10.340;2024-03-22T06:34:15;5.20;99.90
27922;DHT22;15261;50.356;10.340;2024-03-22T06:36:41;5.60;99.90
27922;DHT22;15261;50.356;10.340;2024-03-22T06:39:07;5.90;99.90
27922;DHT22;15261;50.356;10.340;2024-03-22T06:41:34;6.10;99.90
27922;DHT22;15261;50.356;10.340;2024-03-22T06:44:14;6.20;99.90
27922;DHT22;15261;50.356;10.340;2024-03-22T06:46:40;6.30;99.90
27922;DHT22;15261;50.356;10.340;2024-03-22T06:49:06;6.50;99.90
27922;DHT22;15261;50.356;10.340;2024-03-22T06:51:31;6.60;99.90
27922;DHT22;15261;50.356;10.340;2024-03-22T06:53:57;6.70;99.90
27922;DHT22;15261;50.356;10.340;2024-03-22T06:56:23;6.90;99.90
27922;DHT22;15261;50.356;10.340;2024-03-22T06:58:49;6.90;99.90
27922;DHT22;15261;50.356;10.340;2024-03-22T07:01:17;6.80;99.90
27922;DHT22;15261;50.356;10.340;2024-03-22T07:03:43;6.70;99.90
27922;DHT22;15261;50.356;10.340;2024-03-22T07:06:11;6.70;99.90
27922;DHT22;15261;50.356;10.340;2024-03-22T07:08:36;6.80;99.90
27922;DHT22;15261;50.356;10.340;2024-03-22T07:11:05;6.90;99.90
27922;DHT22;15261;50.356;10.340;2024-03-22T07:13:31;7.10;99.90
27922;DHT22;15261;50.356;10.340;2024-03-22T07:15:57;7.10;99.90
27922;DHT22;15261;50.356;10.340;2024-03-22T07:18:23;7.20;99.90
27922;DHT22;15261;50.356;10.340;2024-03-22T07:20:48;7.30;99.90
27922;DHT22;15261;50.356;10.340;2024-03-22T07:23:14;7.30;99.90
27922;DHT22;15261;50.356;10.340;2024-03-22T07:25:40;7.40;99.90
27922;DHT22;15261;50.356;10.340;2024-03-22T07:28:08;7.40;99.90
27922;DHT22;15261;50.356;10.340;2024-03-22T07:30:33;7.40;99.90
27922;DHT22;15261;50.356;10.340;2024-03-22T07:33:00;7.30;99.90
27922;DHT22;15261;50.356;10.340;2024-03-22T07:35:26;7.60;99.90
27922;DHT22;15261;50.356;10.340;2024-03-22T07:37:52;7.70;99.90
27922;DHT22;15261;50.356;10.340;2024-03-22T07:40:17;7.60;99.90
27922;DHT22;15261;50.356;10.340;2024-03-22T07:42:43;7.80;99.90
27922;DHT22;15261;50.356;10.340;2024-03-22T07:45:08;8.20;99.90
27922;DHT22;15261;50.356;10.340;2024-03-22T07:47:34;8.40;99.90
27922;DHT22;15261;50.356;10.340;2024-03-22T07:50:00;8.60;99.90
27922;DHT22;15261;50.356;10.340;2024-03-22T07:52:25;8.70;99.90
27922;DHT22;15261;50.356;10.340;2024-03-22T07:54:51;8.80;99.90
27922;DHT22;15261;50.356;10.340;2024-03-22T07:57:16;8.80;99.90
27922;DHT22;15261;50.356;10.340;2024-03-22T07:59:42;8.90;99.90
27922;DHT22;15261;50.356;10.340;2024-03-22T08:02:09;9.00;99.90
27922;DHT22;15261;50.356;10.340;2024-03-22T08:04:35;9.20;99.90
27922;DHT22;15261;50.356;10.340;2024-03-22T08:07:00;9.20;99.90
27922;DHT22;15261;50.356;10.340;2024-03-22T08:09:26;9.40;99.90
27922;DHT22;15261;50.356;10.340;2024-03-22T08:11:51;9.60;99.90
27922;DHT22;15261;50.356;10.340;2024-03-22T08:14:17;9.70;99.90
27922;DHT22;15261;50.356;10.340;2024-03-22T08:16:42;9.80;99.90
27922;DHT22;15261;50.356;10.340;2024-03-22T08:19:08;10.10;99.90
27922;DHT22;15261;50.356;10.340;2024-03-22T08:21:34;10.30;99.90
27922;DHT22;15261;50.356;10.340;2024-03-22T08:24:00;10.40;99.90
27922;DHT22;15261;50.356;10.340;2024-03-22T08:26:25;10.50;99.90
27922;DHT22;15261;50.356;10.340;2024-03-22T08:28:51;10.50;99.90
27922;DHT22;15261;50.356;10.340;2024-03-22T08:31:16;10.40;99.90
27922;DHT22;15261;50.356;10.340;2024-03-22T08:33:42;10.60;99.90
27922;DHT22;15261;50.356;10.340;2024-03-22T08:36:08;10.70;99.90
27922;DHT22;15261;50.356;10.340;2024-03-22T08:38:33;10.80;99.90
27922;DHT22;15261;50.356;10.340;2024-03-22T08:40:59;11.00;99.90
27922;DHT22;15261;50.356;10.340;2024-03-22T08:43:25;11.10;99.90
27922;DHT22;15261;50.356;10.340;2024-03-22T08:45:51;11.20;99.90
27922;DHT22;15261;50.356;10.340;2024-03-22T08:48:17;11.30;99.90
27922;DHT22;15261;50.356;10.340;2024-03-22T08:50:43;11.30;99.90
27922;DHT22;15261;50.356;10.340;2024-03-22T08:53:09;11.20;99.90
27922;DHT22;15261;50.356;10.340;2024-03-22T08:55:35;11.30;99.90
27922;DHT22;15261;50.356;10.340;2024-03-22T08:58:01;11.30;99.90
27922;DHT22;15261;50.356;10.340;2024-03-22T09:00:26;11.40;99.90
27922;DHT22;15261;50.356;10.340;2024-03-22T09:02:52;11.50;99.90
27922;DHT22;15261;50.356;10.340;2024-03-22T09:05:17;11.50;99.90
27922;DHT22;15261;50.356;10.340;2024-03-22T09:07:44;11.60;99.90
27922;DHT22;15261;50.356;10.340;2024-03-22T09:10:10;11.70;99.90
27922;DHT22;15261;50.356;10.340;2024-03-22T09:12:36;11.70;99.90
27922;DHT22;15261;50.356;10.340;2024-03-22T09:15:01;11.90;99.90
27922;DHT22;15261;50.356;10.340;2024-03-22T09:17:27;12.10;99.90
27922;DHT22;15261;50.356;10.340;2024-03-22T09:19:52;12.30;99.90
27922;DHT22;15261;50.356;10.340;2024-03-22T09:22:18;12.50;99.90
27922;DHT22;15261;50.356;10.340;2024-03-22T09:24:44;12.50;99.90
27922;DHT22;15261;50.356;10.340;2024-03-22T09:27:09;12.70;99.90
27922;DHT22;15261;50.356;10.340;2024-03-22T09:29:38;12.80;99.90
27922;DHT22;15261;50.356;10.340;2024-03-22T09:32:04;12.80;99.90
27922;DHT22;15261;50.356;10.340;2024-03-22T09:34:30;12.90;99.90
27922;DHT22;15261;50.356;10.340;2024-03-22T09:36:57;12.90;99.90
27922;DHT22;15261;50.356;10.340;2024-03-22T09:39:22;13.00;99.90
27922;DHT22;15261;50.356;10.340;2024-03-22T09:41:50;13.00;99.90
27922;DHT22;15261;50.356;10.340;2024-03-22T09:44:18;13.10;99.90
27922;DHT22;15261;50.356;10.340;2024-03-22T09:46:46;13.20;99.90
27922;DHT22;15261;50.356;10.340;2024-03-22T09:49:12;13.30;99.90
27922;DHT22;15261;50.356;10.340;2024-03-22T09:51:39;13.50;99.90
27922;DHT22;15261;50.356;10.340;2024-03-22T09:54:05;13.80;99.90
27922;DHT22;15261;50.356;10.340;2024-03-22T09:56:31;14.00;99.90
27922;DHT22;15261;50.356;10.340;2024-03-22T09:58:58;14.10;99.90
27922;DHT22;15261;50.356;10.340;2024-03-22T10:01:24;14.40;99.30
27922;DHT22;15261;50.356;10.340;2024-03-22T10:03:51;14.40;99.30
27922;DHT22;15261;50.356;10.340;2024-03-22T10:06:17;14.60;99.10
27922;DHT22;15261;50.356;10.340;2024-03-22T10:08:44;14.60;99.30
27922;DHT22;15261;50.356;10.340;2024-03-22T10:11:10;14.40;99.60
27922;DHT22;15261;50.356;10.340;2024-03-22T10:13:36;14.40;99.30
27922;DHT22;15261;50.356;10.340;2024-03-22T10:16:01;14.40;98.90
27922;DHT22;15261;50.356;10.340;2024-03-22T10:18:27;14.30;99.20
27922;DHT22;15261;50.356;10.340;2024-03-22T10:23:26;14.00;99.30
27922;DHT22;15261;50.356;10.340;2024-03-22T10:25:53;14.00;99.50
27922;DHT22;15261;50.356;10.340;2024-03-22T10:28:19;13.90;99.90
27922;DHT22;15261;50.356;10.340;2024-03-22T10:30:44;13.70;99.80
27922;DHT22;15261;50.356;10.340;2024-03-22T10:33:13;13.80;99.90
27922;DHT22;15261;50.356;10.340;2024-03-22T10:35:39;13.70;99.80
27922;DHT22;15261;50.356;10.340;2024-03-22T10:38:06;13.80;99.90
27922;DHT22;15261;50.356;10.340;2024-03-22T10:40:34;13.80;99.90
27922;DHT22;15261;50.356;10.340;2024-03-22T10:43:00;13.90;99.80
27922;DHT22;15261;50.356;10.340;2024-03-22T10:45:29;13.90;99.90
27922;DHT22;15261;50.356;10.340;2024-03-22T10:47:55;14.00;99.90
27922;DHT22;15261;50.356;10.340;2024-03-22T10:50:22;14.10;99.40
27922;DHT22;15261;50.356;10.340;2024-03-22T10:52:54;14.20;99.00
27922;DHT22;15261;50.356;10.340;2024-03-22T10:55:41;14.30;98.80
27922;DHT22;15261;50.356;10.340;2024-03-22T10:58:07;14.40;98.60
27922;DHT22;15261;50.356;10.340;2024-03-22T11:00:42;14.50;98.60
27922;DHT22;15261;50.356;10.340;2024-03-22T11:03:08;14.50;98.50
27922;DHT22;15261;50.356;10.340;2024-03-22T11:05:34;14.50;98.80
27922;DHT22;15261;50.356;10.340;2024-03-22T11:08:04;14.50;98.20
27922;DHT22;15261;50.356;10.340;2024-03-22T11:10:30;14.60;98.40
27922;DHT22;15261;50.356;10.340;2024-03-22T11:13:06;14.60;98.30
27922;DHT22;15261;50.356;10.340;2024-03-22T11:15:33;14.60;98.10
27922;DHT22;15261;50.356;10.340;2024-03-22T11:17:59;14.80;98.30
27922;DHT22;15261;50.356;10.340;2024-03-22T11:20:28;14.90;97.70
27922;DHT22;15261;50.356;10.340;2024-03-22T11:22:56;15.10;97.30
27922;DHT22;15261;50.356;10.340;2024-03-22T11:25:22;15.30;97.00
27922;DHT22;15261;50.356;10.340;2024-03-22T11:27:48;15.70;97.00
27922;DHT22;15261;50.356;10.340;2024-03-22T11:30:15;15.90;96.40
27922;DHT22;15261;50.356;10.340;2024-03-22T11:32:41;16.00;96.40
27922;DHT22;15261;50.356;10.340;2024-03-22T11:35:11;16.20;96.10
27922;DHT22;15261;50.356;10.340;2024-03-22T11:37:41;16.30;95.60
27922;DHT22;15261;50.356;10.340;2024-03-22T11:40:10;16.30;95.30
27922;DHT22;15261;50.356;10.340;2024-03-22T11:42:38;16.10;94.90
27922;DHT22;15261;50.356;10.340;2024-03-22T11:45:05;16.00;95.00
27922;DHT22;15261;50.356;10.340;2024-03-22T11:47:33;16.00;95.50
27922;DHT22;15261;50.356;10.340;2024-03-22T11:49:59;16.10;95.20
27922;DHT22;15261;50.356;10.340;2024-03-22T11:52:25;16.20;95.00
27922;DHT22;15261;50.356;10.340;2024-03-22T11:54:52;16.10;95.40
27922;DHT22;15261;50.356;10.340;2024-03-22T11:57:21;16.10;94.90
27922;DHT22;15261;50.356;10.340;2024-03-22T11:59:47;16.10;95.10
27922;DHT22;15261;50.356;10.340;2024-03-22T12:02:13;16.10;95.10
27922;DHT22;15261;50.356;10.340;2024-03-22T12:04:46;16.10;95.00
27922;DHT22;15261;50.356;10.340;2024-03-22T12:07:17;16.00;95.00
27922;DHT22;15261;50.356;10.340;2024-03-22T12:09:43;16.10;95.10
27922;DHT22;15261;50.356;10.340;2024-03-22T12:12:11;16.30;94.80
27922;DHT22;15261;50.356;10.340;2024-03-22T12:14:37;16.40;94.50
27922;DHT22;15261;50.356;10.340;2024-03-22T12:17:04;16.50;94.60
27922;DHT22;15261;50.356;10.340;2024-03-22T12:19:30;16.80;94.80
27922;DHT22;15261;50.356;10.340;2024-03-22T12:21:56;16.90;94.20
27922;DHT22;15261;50.356;10.340;2024-03-22T12:24:22;17.00;94.10
27922;DHT22;15261;50.356;10.340;2024-03-22T12:26:48;17.00;93.40
27922;DHT22;15261;50.356;10.340;2024-03-22T12:29:16;17.00;94.10
27922;DHT22;15261;50.356;10.340;2024-03-22T12:31:42;17.00;94.20
27922;DHT22;15261;50.356;10.340;2024-03-22T12:34:08;17.00;94.00
27922;DHT22;15261;50.356;10.340;2024-03-22T12:36:34;17.00;93.50
27922;DHT22;15261;50.356;10.340;2024-03-22T12:38:59;17.10;93.90
27922;DHT22;15261;50.356;10.340;2024-03-22T12:41:25;17.10;93.30
27922;DHT22;15261;50.356;10.340;2024-03-22T12:43:51;17.10;92.90
27922;DHT22;15261;50.356;10.340;2024-03-22T12:46:17;17.10;93.10
27922;DHT22;15261;50.356;10.340;2024-03-22T12:48:42;17.20;93.40
27922;DHT22;15261;50.356;10.340;2024-03-22T12:51:11;17.30;93.20
27922;DHT22;15261;50.356;10.340;2024-03-22T12:53:37;17.20;92.80
27922;DHT22;15261;50.356;10.340;2024-03-22T12:56:03;17.20;92.30
27922;DHT22;15261;50.356;10.340;2024-03-22T12:58:32;17.10;93.00
27922;DHT22;15261;50.356;10.340;2024-03-22T13:00:59;17.00;92.90
27922;DHT22;15261;50.356;10.340;2024-03-22T13:03:26;17.00;92.60
27922;DHT22;15261;50.356;10.340;2024-03-22T13:05:52;17.10;92.70
27922;DHT22;15261;50.356;10.340;2024-03-22T13:08:19;17.10;92.90
27922;DHT22;15261;50.356;10.340;2024-03-22T13:10:45;17.10;92.80
27922;DHT22;15261;50.356;10.340;2024-03-22T13:13:11;17.10;92.70
27922;DHT22;15261;50.356;10.340;2024-03-22T13:15:38;17.10;92.50
27922;DHT22;15261;50.356;10.340;2024-03-22T13:18:04;17.00;92.90
27922;DHT22;15261;50.356;10.340;2024-03-22T13:20:30;17.00;92.50
27922;DHT22;15261;50.356;10.340;2024-03-22T13:22:56;17.00;92.50
27922;DHT22;15261;50.356;10.340;2024-03-22T13:25:22;17.00;93.00
27922;DHT22;15261;50.356;10.340;2024-03-22T13:27:47;17.00;92.10
27922;DHT22;15261;50.356;10.340;2024-03-22T13:30:14;17.10;92.50
27922;DHT22;15261;50.356;10.340;2024-03-22T13:32:40;17.10;92.00
27922;DHT22;15261;50.356;10.340;2024-03-22T13:35:07;17.10;92.40
27922;DHT22;15261;50.356;10.340;2024-03-22T13:37:33;17.10;92.10
27922;DHT22;15261;50.356;10.340;2024-03-22T13:39:59;17.20;92.00
27922;DHT22;15261;50.356;10.340;2024-03-22T13:42:26;17.00;92.20
27922;DHT22;15261;50.356;10.340;2024-03-22T13:44:52;16.90;92.20
27922;DHT22;15261;50.356;10.340;2024-03-22T13:47:17;16.80;92.20
27922;DHT22;15261;50.356;10.340;2024-03-22T13:49:44;16.70;92.40
27922;DHT22;15261;50.356;10.340;2024-03-22T13:52:13;16.60;92.70
27922;DHT22;15261;50.356;10.340;2024-03-22T13:54:39;16.60;92.30
27922;DHT22;15261;50.356;10.340;2024-03-22T13:57:04;16.60;92.70
27922;DHT22;15261;50.356;10.340;2024-03-22T13:59:30;16.60;92.80
27922;DHT22;15261;50.356;10.340;2024-03-22T14:01:56;16.60;92.70
27922;DHT22;15261;50.356;10.340;2024-03-22T14:04:25;16.70;92.90
27922;DHT22;15261;50.356;10.340;2024-03-22T14:06:54;16.70;92.70
27922;DHT22;15261;50.356;10.340;2024-03-22T14:09:20;16.80;92.90
27922;DHT22;15261;50.356;10.340;2024-03-22T14:11:45;16.90;92.70
27922;DHT22;15261;50.356;10.340;2024-03-22T14:14:14;17.00;92.70
27922;DHT22;15261;50.356;10.340;2024-03-22T14:16:40;17.20;92.30
27922;DHT22;15261;50.356;10.340;2024-03-22T14:19:09;17.30;91.80
27922;DHT22;15261;50.356;10.340;2024-03-22T14:21:35;17.40;92.40
27922;DHT22;15261;50.356;10.340;2024-03-22T14:24:01;17.50;92.00
27922;DHT22;15261;50.356;10.340;2024-03-22T14:26:28;17.30;92.30
27922;DHT22;15261;50.356;10.340;2024-03-22T14:28:54;17.20;91.90
27922;DHT22;15261;50.356;10.340;2024-03-22T14:31:19;17.20;92.40
27922;DHT22;15261;50.356;10.340;2024-03-22T14:33:45;17.00;91.70
27922;DHT22;15261;50.356;10.340;2024-03-22T14:36:11;16.90;91.70
27922;DHT22;15261;50.356;10.340;2024-03-22T14:38:38;16.80;91.50
27922;DHT22;15261;50.356;10.340;2024-03-22T14:41:04;16.80;91.80
27922;DHT22;15261;50.356;10.340;2024-03-22T14:43:30;16.80;91.70
27922;DHT22;15261;50.356;10.340;2024-03-22T14:46:02;16.70;92.10
27922;DHT22;15261;50.356;10.340;2024-03-22T14:48:28;16.80;91.80
27922;DHT22;15261;50.356;10.340;2024-03-22T14:50:54;16.80;91.80
27922;DHT22;15261;50.356;10.340;2024-03-22T14:53:20;16.90;91.50
27922;DHT22;15261;50.356;10.340;2024-03-22T14:56:01;16.90;92.00
27922;DHT22;15261;50.356;10.340;2024-03-22T14:58:30;16.90;91.50
27922;DHT22;15261;50.356;10.340;2024-03-22T15:00:59;16.90;91.80
27922;DHT22;15261;50.356;10.340;2024-03-22T15:03:26;16.70;91.50
27922;DHT22;15261;50.356;10.340;2024-03-22T15:05:53;16.70;91.50
27922;DHT22;15261;50.356;10.340;2024-03-22T15:08:20;16.70;90.50
27922;DHT22;15261;50.356;10.340;2024-03-22T15:10:45;16.60;88.70
27922;DHT22;15261;50.356;10.340;2024-03-22T15:13:12;16.50;87.10
27922;DHT22;15261;50.356;10.340;2024-03-22T15:15:38;16.50;87.40
27922;DHT22;15261;50.356;10.340;2024-03-22T15:18:04;16.50;88.60
27922;DHT22;15261;50.356;10.340;2024-03-22T15:20:33;16.40;87.70
27922;DHT22;15261;50.356;10.340;2024-03-22T15:23:00;16.30;88.00
27922;DHT22;15261;50.356;10.340;2024-03-22T15:25:26;16.30;87.80
27922;DHT22;15261;50.356;10.340;2024-03-22T15:27:51;16.20;89.00
27922;DHT22;15261;50.356;10.340;2024-03-22T15:30:17;16.20;90.10
27922;DHT22;15261;50.356;10.340;2024-03-22T15:32:43;16.10;91.10
27922;DHT22;15261;50.356;10.340;2024-03-22T15:35:09;15.90;91.10
27922;DHT22;15261;50.356;10.340;2024-03-22T15:37:36;15.80;91.10